Time;durP1;ratioP1;P1;durP2;ratioP2;P2;SDS_P1;SDS_P2;PMS_P1;PMS_P2;Temp;Humidity;BMP_temperature;BMP_pressure;BME280_temperature;BME280_humidity;BME280_pressure;Samples;Min_cycle;Max_cycle;Signal;HPM_P1;HPM_P2
2022/03/21 00:00:59;;;;;;;2.50;2.40;;;4.60;99.90;4.50;102651.00;;;;5050596;28;20179;-67
2022/03/21 00:03:30;;;;;;;0.40;0.40;;;4.70;99.90;4.60;102642.00;;;;5033681;28;20207;-67
2022/03/21 00:06:02;;;;;;;15.03;6.70;;;4.80;99.90;4.40;102684.00;;;;5051107;28;20193;-67
2022/03/21 00:08:33;;;;;;;0.57;0.57;;;4.70;99.90;4.30;102685.00;;;;5034467;28;20620;-67
2022/03/21 00:11:05;;;;;;;0.50;0.50;;;4.60;99.90;4.20;102692.00;;;;5035582;28;20210;-67
2022/03/21 00:13:36;;;;;;;1.50;1.50;;;4.60;99.90;4.50;102681.00;;;;5034250;28;20232;-67
2022/03/21 00:16:05;;;;;;;0.47;0.47;;;4.70;99.90;4.30;102689.00;;;;5034597;28;20190;-67
2022/03/21 00:18:38;;;;;;;0.60;0.60;;;4.60;99.90;4.40;102673.00;;;;5033805;28;20193;-67
2022/03/21 00:21:09;;;;;;;1.73;1.67;;;4.60;99.90;4.20;102668.00;;;;5035462;28;20269;-67
2022/03/21 00:23:41;;;;;;;0.50;0.50;;;4.60;99.90;4.00;102626.00;;;;5034064;28;20167;-67
2022/03/21 00:26:12;;;;;;;0.40;0.40;;;4.50;99.90;4.30;102671.00;;;;5034168;28;20288;-67
2022/03/21 00:28:44;;;;;;;0.57;0.57;;;4.50;99.90;4.40;102681.00;;;;5034106;28;20179;-67
2022/03/21 00:31:16;;;;;;;1.90;1.53;;;4.50;99.90;4.40;102683.00;;;;5034100;28;20238;-67
2022/03/21 00:33:48;;;;;;;0.40;0.40;;;4.50;99.90;4.40;102675.00;;;;5035185;28;20630;-67
2022/03/21 00:36:20;;;;;;;2.20;2.00;;;4.50;99.90;4.30;102668.00;;;;5033962;28;20713;-67
2022/03/21 00:38:49;;;;;;;2.10;1.53;;;4.50;99.90;4.10;102672.00;;;;5033815;28;20333;-68
2022/03/21 00:41:22;;;;;;;1.97;1.87;;;4.30;99.90;4.20;102678.00;;;;5033895;28;20626;-67
2022/03/21 00:43:53;;;;;;;0.70;0.70;;;4.30;99.90;3.80;102655.00;;;;5034289;28;20187;-67
2022/03/21 00:46:25;;;;;;;1.27;1.27;;;4.20;99.90;3.50;102669.00;;;;5033911;28;20178;-65
2022/03/21 00:48:59;;;;;;;0.60;0.60;;;4.10;99.90;4.00;102664.00;;;;5034858;28;20194;-67
2022/03/21 00:51:30;;;;;;;1.07;1.07;;;4.20;99.90;4.00;102676.00;;;;5033474;28;20234;-66
2022/03/21 00:54:01;;;;;;;2.60;2.50;;;4.20;99.90;3.80;102671.00;;;;5034319;28;20574;-67
2022/03/21 00:56:30;;;;;;;6.67;6.23;;;4.20;99.90;3.80;102661.00;;;;5032290;28;20213;-67
2022/03/21 00:59:01;;;;;;;1.07;1.07;;;4.20;99.90;4.00;102668.00;;;;5034868;28;20270;-66
2022/03/21 01:01:35;;;;;;;1.07;1.07;;;4.20;99.90;3.80;102674.00;;;;5032891;28;20178;-66
2022/03/21 01:04:08;;;;;;;3.10;2.80;;;4.20;99.90;3.70;102674.00;;;;5033226;28;20636;-67
2022/03/21 01:06:39;;;;;;;0.70;0.70;;;4.20;99.90;3.70;102655.00;;;;5033387;28;20159;-67
2022/03/21 01:09:17;;;;;;;0.47;0.47;;;4.10;99.90;3.80;102676.00;;;;5034542;28;20206;-67
2022/03/21 01:11:50;;;;;;;0.80;0.80;;;4.10;99.90;3.80;102673.00;;;;5033177;28;20198;-67
2022/03/21 01:14:24;;;;;;;1.17;0.93;;;4.10;99.90;3.70;102667.00;;;;5034313;28;20181;-67
2022/03/21 01:16:58;;;;;;;0.40;0.40;;;4.20;99.90;3.80;102677.00;;;;5034060;28;20250;-67
2022/03/21 01:19:30;;;;;;;1.90;1.80;;;4.20;99.90;3.80;102681.00;;;;5034255;28;20237;-67
2022/03/21 01:22:01;;;;;;;0.50;0.50;;;4.20;99.90;4.10;102675.00;;;;5032936;28;20194;-67
2022/03/21 01:24:35;;;;;;;1.90;1.80;;;4.30;99.90;4.20;102685.00;;;;5034098;28;20232;-67
2022/03/21 01:27:07;;;;;;;2.83;2.73;;;4.40;99.90;3.90;102676.00;;;;5033160;28;20178;-67
2022/03/21 01:29:42;;;;;;;1.73;1.63;;;4.30;99.90;3.70;102658.00;;;;5032561;28;20201;-67
2022/03/21 01:32:13;;;;;;;0.63;0.57;;;4.20;99.90;3.70;102679.00;;;;5033622;28;20301;-67
2022/03/21 01:34:44;;;;;;;3.77;2.73;;;4.20;99.90;3.70;102679.00;;;;5033890;28;20631;-67
2022/03/21 01:37:17;;;;;;;3.00;2.87;;;4.20;99.90;3.80;102692.00;;;;5033994;28;20178;-67
2022/03/21 01:39:54;;;;;;;1.23;1.20;;;4.30;99.90;3.90;102685.00;;;;5033851;28;20179;-67
2022/03/21 01:42:24;;;;;;;3.20;3.03;;;4.30;99.90;4.00;102669.00;;;;5034313;28;20167;-67
2022/03/21 01:44:58;;;;;;;5.27;4.43;;;4.40;99.90;3.80;102680.00;;;;5032254;28;20183;-67
2022/03/21 01:47:33;;;;;;;4.27;3.97;;;4.30;99.90;3.70;102687.00;;;;5016045;28;20178;-67
2022/03/21 01:50:05;;;;;;;2.67;2.43;;;4.30;99.90;3.60;102690.00;;;;5032329;28;20189;-67
2022/03/21 01:52:37;;;;;;;5.00;4.60;;;4.20;99.90;3.80;102679.00;;;;5032638;28;20211;-67
2022/03/21 01:58:05;;;;;;;5.13;4.63;;;4.20;99.90;3.70;102681.00;;;;5033750;28;20240;-67
2022/03/21 02:00:37;;;;;;;1.60;1.53;;;4.30;99.90;4.00;102681.00;;;;5048755;28;20583;-67
2022/03/21 02:03:11;;;;;;;7.43;4.53;;;4.40;99.90;3.90;102673.00;;;;5032395;28;20753;-67
2022/03/21 02:05:45;;;;;;;2.90;2.70;;;4.40;99.90;3.70;102683.00;;;;5048843;28;20550;-66
2022/03/21 02:08:17;;;;;;;3.37;3.07;;;4.40;99.90;3.90;102676.00;;;;5033114;28;20178;-66
2022/03/21 02:10:46;;;;;;;4.23;4.03;;;4.30;99.90;4.00;102685.00;;;;5032473;28;20628;-66
2022/03/21 02:13:19;;;;;;;6.53;2.63;;;4.40;99.90;3.90;102687.00;;;;5031985;28;20673;-66
2022/03/21 02:15:50;;;;;;;9.17;6.53;;;4.40;99.90;3.80;102687.00;;;;5031978;28;20650;-67
2022/03/21 02:18:23;;;;;;;2.40;2.20;;;4.30;99.90;4.00;102682.00;;;;5032161;28;20182;-67
2022/03/21 02:20:51;;;;;;;2.13;2.03;;;4.40;99.90;4.10;102688.00;;;;5015065;28;20224;-68
2022/03/21 02:23:43;;;;;;;1.53;1.43;;;4.50;99.90;3.80;102687.00;;;;5031935;28;20240;-67
2022/03/21 02:26:15;;;;;;;9.20;6.63;;;4.40;99.90;3.80;102683.00;;;;5032188;28;20179;-67
2022/03/21 02:28:48;;;;;;;2.53;2.33;;;4.40;99.90;4.10;102687.00;;;;5031942;28;20179;-67
2022/03/21 02:31:23;;;;;;;5.30;3.13;;;4.40;99.90;3.70;102686.00;;;;5033228;28;20210;-68
2022/03/21 02:33:55;;;;;;;2.43;2.07;;;4.40;99.90;3.80;102669.00;;;;5032260;28;20174;-68
2022/03/21 02:36:27;;;;;;;2.63;2.53;;;4.30;99.90;3.60;102683.00;;;;5015473;28;20660;-68
2022/03/21 02:38:59;;;;;;;4.20;3.57;;;4.20;99.90;3.70;102684.00;;;;5031640;28;20209;-67
2022/03/21 02:41:33;;;;;;;4.53;3.17;;;4.20;99.90;3.60;102684.00;;;;5031829;28;20608;-67
2022/03/21 02:44:03;;;;;;;2.93;2.57;;;4.10;99.90;3.70;102693.00;;;;5032991;28;20194;-67
2022/03/21 02:46:37;;;;;;;3.60;3.30;;;4.10;99.90;3.70;102685.00;;;;5033213;28;20182;-67
2022/03/21 02:49:09;;;;;;;1.07;0.97;;;4.10;99.90;3.90;102682.00;;;;5032012;28;20194;-67
2022/03/21 02:51:43;;;;;;;0.40;0.40;;;4.30;99.90;3.70;102696.00;;;;5031578;28;20222;-68
2022/03/21 02:54:18;;;;;;;2.13;2.03;;;4.30;99.90;4.10;102681.00;;;;5048759;28;20589;-68
2022/03/21 02:56:53;;;;;;;8.20;7.60;;;4.30;99.90;4.00;102693.00;;;;5032687;28;20240;-68
2022/03/21 02:59:25;;;;;;;1.63;1.57;;;4.40;99.90;4.30;102678.00;;;;5032039;28;20206;-67
2022/03/21 03:01:59;;;;;;;1.03;1.03;;;4.50;99.90;3.80;102674.00;;;;5031484;28;20595;-67
2022/03/21 03:04:29;;;;;;;0.53;0.53;;;4.30;99.90;3.70;102689.00;;;;5033036;28;20237;-67
2022/03/21 03:07:01;;;;;;;1.70;1.67;;;4.30;99.90;4.10;102682.00;;;;5014900;28;20550;-68
2022/03/21 03:09:30;;;;;;;0.40;0.40;;;4.30;99.90;4.00;102690.00;;;;5032135;28;20251;-68
2022/03/21 03:12:01;;;;;;;6.40;5.93;;;4.30;99.90;3.70;102693.00;;;;5030999;28;20210;-67
2022/03/21 03:14:32;;;;;;;0.67;0.67;;;4.20;99.90;2.80;102685.00;;;;5033188;28;20534;-67
2022/03/21 03:17:07;;;;;;;0.80;0.80;;;3.90;99.90;2.80;102676.00;;;;5032021;28;20214;-68
2022/03/21 03:19:38;;;;;;;1.27;1.27;;;3.60;99.90;3.10;102675.00;;;;5034543;28;20597;-68
2022/03/21 03:22:09;;;;;;;0.30;0.30;;;3.60;99.90;3.20;102642.00;;;;5034977;28;20209;-67
2022/03/21 03:24:40;;;;;;;0.30;0.30;;;3.60;99.90;3.30;102700.00;;;;5036618;28;20237;-67
2022/03/21 03:27:14;;;;;;;0.80;0.80;;;3.70;99.90;3.10;102699.00;;;;5036402;28;20186;-68
2022/03/21 03:29:48;;;;;;;0.40;0.40;;;3.70;99.90;3.20;102689.00;;;;5035050;28;20179;-67
2022/03/21 03:32:19;;;;;;;0.30;0.30;;;3.70;99.90;3.40;102706.00;;;;5036266;28;20289;-67
2022/03/21 03:34:56;;;;;;;0.40;0.40;;;3.60;99.90;3.40;102648.00;;;;5035011;28;20761;-67
2022/03/21 03:37:25;;;;;;;0.40;0.40;;;3.60;99.90;3.40;102680.00;;;;5035147;28;20257;-67
2022/03/21 03:39:59;;;;;;;0.30;0.30;;;3.60;99.90;3.40;102701.00;;;;5034999;28;20575;-67
2022/03/21 03:42:28;;;;;;;0.30;0.30;;;3.70;99.90;3.30;102690.00;;;;5035849;28;20182;-67
2022/03/21 03:45:03;;;;;;;0.40;0.40;;;3.60;99.90;3.20;102686.00;;;;5018117;28;20205;-68
2022/03/21 03:47:36;;;;;;;0.93;0.93;;;3.60;99.90;3.40;102700.00;;;;5035903;28;20665;-68
2022/03/21 03:50:08;;;;;;;0.30;0.30;;;3.60;99.90;3.20;102714.00;;;;5035962;28;20186;-68
2022/03/21 03:52:36;;;;;;;0.40;0.40;;;3.60;99.90;3.30;102710.00;;;;5035904;28;20329;-68
2022/03/21 03:55:08;;;;;;;0.63;0.63;;;3.60;99.90;3.30;102705.00;;;;5018153;28;20186;-68
2022/03/21 03:57:41;;;;;;;0.33;0.33;;;3.60;99.90;3.20;102696.00;;;;5034518;28;20175;-68
2022/03/21 04:00:15;;;;;;;0.40;0.40;;;3.60;99.90;3.00;102712.00;;;;5034730;28;20194;-68
2022/03/21 04:05:34;;;;;;;0.40;0.40;;;3.30;99.90;3.10;102718.00;;;;5034731;28;20272;-67
2022/03/21 04:08:05;;;;;;;0.40;0.40;;;3.40;99.90;3.20;102717.00;;;;5034602;28;20221;-67
2022/03/21 04:10:34;;;;;;;1.37;1.37;;;3.30;99.90;2.90;102721.00;;;;5034043;28;20229;-68
2022/03/21 04:13:00;;;;;;;0.93;0.93;;;3.40;99.90;3.10;102669.00;;;;5017967;28;20293;-69
2022/03/21 04:15:31;;;;;;;0.80;0.80;;;3.40;99.90;3.20;102713.00;;;;5035569;28;20262;-67
2022/03/21 04:18:04;;;;;;;2.03;1.93;;;3.40;99.90;2.60;102695.00;;;;5034155;28;20171;-67
2022/03/21 04:20:36;;;;;;;0.40;0.40;;;3.30;99.90;2.90;102722.00;;;;5034264;28;20175;-67
2022/03/21 04:23:04;;;;;;;0.83;0.83;;;3.30;99.90;2.90;102713.00;;;;5035361;28;20539;-67
2022/03/21 04:25:33;;;;;;;2.47;2.37;;;3.30;99.90;3.30;102713.00;;;;5033993;28;20270;-68
2022/03/21 04:28:10;;;;;;;1.63;1.10;;;3.40;99.90;2.80;102694.00;;;;5034092;28;20179;-67
2022/03/21 04:30:41;;;;;;;1.77;1.67;;;3.50;99.90;2.80;102700.00;;;;5033946;28;20179;-67
2022/03/21 04:33:14;;;;;;;0.60;0.60;;;3.40;99.90;2.60;102720.00;;;;5034112;28;20202;-68
2022/03/21 04:35:53;;;;;;;0.50;0.50;;;3.30;99.90;2.80;102705.00;;;;5034039;28;20261;-67
2022/03/21 04:38:24;;;;;;;3.40;3.20;;;3.30;99.90;2.80;102709.00;;;;5034443;28;20179;-68
2022/03/21 04:40:55;;;;;;;0.40;0.40;;;3.20;99.90;2.80;102719.00;;;;5034880;28;20186;-67
2022/03/21 04:43:27;;;;;;;0.50;0.50;;;3.20;99.90;2.80;102714.00;;;;5034169;28;20681;-67
2022/03/21 04:45:58;;;;;;;0.40;0.40;;;3.10;99.90;2.50;102719.00;;;;5034728;28;20757;-67
2022/03/21 04:48:29;;;;;;;0.40;0.40;;;3.10;99.90;2.70;102713.00;;;;5017276;28;20650;-67
2022/03/21 04:51:01;;;;;;;1.67;1.67;;;3.10;99.90;2.70;102710.00;;;;5050094;28;20218;-68
2022/03/21 04:53:35;;;;;;;0.63;0.63;;;3.10;99.90;2.30;102718.00;;;;5033775;28;20524;-67
2022/03/21 04:56:06;;;;;;;1.57;1.57;;;2.90;99.90;2.00;102718.00;;;;5033651;28;20182;-67
2022/03/21 04:58:37;;;;;;;0.83;0.83;;;2.80;99.90;2.40;102673.00;;;;5034026;28;20175;-67
2022/03/21 05:01:08;;;;;;;1.30;1.20;;;2.80;99.90;2.10;102719.00;;;;5032982;28;20181;-67
2022/03/21 05:03:39;;;;;;;2.00;1.90;;;2.70;99.90;2.20;102731.00;;;;5034519;28;20197;-68
2022/03/21 05:06:12;;;;;;;0.53;0.53;;;2.70;99.90;2.20;102722.00;;;;5033456;28;20194;-67
2022/03/21 05:08:44;;;;;;;3.57;3.37;;;2.70;99.90;2.10;102739.00;;;;5034247;28;20183;-67
2022/03/21 05:11:17;;;;;;;0.47;0.47;;;2.60;99.90;2.00;102739.00;;;;5034123;28;20171;-67
2022/03/21 05:13:50;;;;;;;1.83;1.67;;;2.60;99.90;1.90;102744.00;;;;5034255;28;20202;-66
2022/03/21 05:16:24;;;;;;;1.30;1.20;;;2.50;99.90;2.10;102690.00;;;;5049724;28;20187;-66
2022/03/21 05:18:58;;;;;;;0.93;0.93;;;2.50;99.90;2.50;102744.00;;;;5032903;28;20183;-67
2022/03/21 05:21:30;;;;;;;1.67;1.57;;;2.70;99.90;2.30;102747.00;;;;5033891;28;20186;-66
2022/03/21 05:32:35;;;;;;;3.67;2.73;;;2.80;99.90;1.90;102753.00;;;;5032841;28;20604;-67
2022/03/21 05:37:56;;;;;;;4.57;2.40;;;2.70;99.90;1.80;102752.00;;;;5034483;28;20302;-67
2022/03/21 05:40:35;;;;;;;1.10;1.00;;;2.60;99.90;2.30;102749.00;;;;5032276;28;20627;-67
2022/03/21 05:43:04;;;;;;;0.97;0.97;;;2.70;99.90;2.00;102741.00;;;;5032537;28;20163;-67
2022/03/21 05:45:32;;;;;;;3.57;3.23;;;2.70;99.90;2.00;102754.00;;;;5033627;28;20170;-67
2022/03/21 05:51:02;;;;;;;2.70;2.50;;;2.70;99.90;2.40;102758.00;;;;5033388;28;20194;-67
2022/03/21 05:53:41;;;;;;;4.40;4.10;;;2.80;99.90;2.20;102742.00;;;;5033098;28;20575;-67
2022/03/21 05:56:21;;;;;;;3.10;2.83;;;2.80;99.90;2.20;102726.00;;;;5049131;28;20183;-66
2022/03/21 05:58:56;;;;;;;5.87;5.30;;;2.80;99.90;2.00;102761.00;;;;5033896;28;20206;-66
2022/03/21 06:01:30;;;;;;;3.23;3.07;;;2.70;99.90;2.50;102704.00;;;;5032651;28;20158;-66
2022/03/21 06:04:06;;;;;;;7.93;4.10;;;2.90;99.90;2.60;102764.00;;;;5048930;28;20710;-68
2022/03/21 06:06:40;;;;;;;8.47;6.93;;;2.90;99.90;2.40;102750.00;;;;5032109;28;20181;-68
2022/03/21 06:09:15;;;;;;;1.93;1.83;;;3.00;99.90;3.10;102752.00;;;;5032387;28;20183;-68
2022/03/21 06:11:51;;;;;;;4.23;3.93;;;3.30;99.90;3.00;102744.00;;;;5048551;28;20259;-68
2022/03/21 06:14:29;;;;;;;0.50;0.50;;;3.40;99.90;3.20;102757.00;;;;5032297;28;20174;-68
2022/03/21 06:17:03;;;;;;;1.30;1.30;;;3.50;99.90;3.10;102766.00;;;;5033530;28;20179;-68
2022/03/21 06:19:39;;;;;;;1.90;0.90;;;3.60;99.90;3.40;102770.00;;;;5031711;28;20189;-68
2022/03/21 06:22:10;;;;;;;1.03;1.03;;;3.70;99.90;3.60;102726.00;;;;5033350;28;20174;-68
2022/03/21 06:24:41;;;;;;;5.47;2.73;;;3.90;99.90;3.70;102770.00;;;;5033210;28;20187;-68
2022/03/21 06:27:14;;;;;;;3.43;3.13;;;4.00;99.90;3.80;102773.00;;;;5032304;28;20200;-68
2022/03/21 06:29:46;;;;;;;0.50;0.50;;;4.10;99.90;3.70;102774.00;;;;5032096;28;20229;-68
2022/03/21 06:32:22;;;;;;;2.10;2.00;;;4.20;99.90;3.80;102764.00;;;;5031662;28;20685;-68
2022/03/21 06:34:54;;;;;;;3.97;3.67;;;4.20;99.90;4.30;102777.00;;;;5016052;28;20272;-68
2022/03/21 06:37:28;;;;;;;4.30;3.70;;;4.50;99.90;4.00;102773.00;;;;5015063;28;20237;-68
2022/03/21 06:39:59;;;;;;;4.37;3.80;;;4.60;99.90;4.10;102768.00;;;;5033443;28;20205;-67
2022/03/21 06:42:35;;;;;;;4.17;3.93;;;4.60;99.90;4.50;102788.00;;;;5032891;28;20182;-68
2022/03/21 06:45:07;;;;;;;2.53;2.37;;;4.80;99.90;5.10;102790.00;;;;5032439;28;20179;-69
2022/03/21 06:47:43;;;;;;;1.77;1.77;;;5.30;99.90;5.30;102787.00;;;;5031569;28;20604;-69
2022/03/21 06:50:15;;;;;;;0.90;0.90;;;5.50;99.90;5.20;102791.00;;;;5031840;28;20173;-68
2022/03/21 06:52:49;;;;;;;0.97;0.97;;;5.70;99.90;5.90;102805.00;;;;5031785;28;20273;-69
2022/03/21 06:55:20;;;;;;;0.77;0.77;;;6.20;99.90;6.30;102752.00;;;;5036102;28;20597;-68
2022/03/21 06:57:51;;;;;;;0.30;0.30;;;6.50;99.90;7.50;102766.00;;;;5036982;28;20548;-68
2022/03/21 07:00:22;;;;;;;2.10;2.00;;;7.20;99.90;8.40;102838.00;;;;5037130;28;20205;-69
2022/03/21 07:02:56;;;;;;;2.47;2.37;;;8.20;99.90;9.30;102858.00;;;;5052138;28;20189;-68
2022/03/21 07:05:28;;;;;;;1.90;1.80;;;8.80;99.90;9.60;102852.00;;;;5035822;28;20234;-68
2022/03/21 07:09:06;;;;;;;0.67;0.67;;;9.20;99.90;11.10;102906.00;;;;5036664;28;20176;-68
2022/03/21 07:11:37;;;;;;;1.23;1.23;;;10.20;99.90;11.90;102927.00;;;;5035524;28;20707;-67
2022/03/21 07:14:09;;;;;;;1.70;1.60;;;11.00;99.90;12.20;102961.00;;;;5035404;28;20197;-67
2022/03/21 07:16:40;;;;;;;0.40;0.40;;;11.80;99.90;13.20;102977.00;;;;5035475;28;20288;-67
2022/03/21 07:19:14;;;;;;;0.30;0.30;;;12.40;99.90;13.70;103013.00;;;;5036135;28;20187;-67
2022/03/21 07:21:45;;;;;;;0.33;0.33;;;13.00;99.90;13.90;102993.00;;;;5036549;28;20180;-67
2022/03/21 07:24:19;;;;;;;0.73;0.37;;;13.40;99.90;13.50;102998.00;;;;5035343;28;20182;-68
2022/03/21 07:26:58;;;;;;;2.53;1.83;;;13.10;99.90;12.60;103028.00;;;;5035699;28;20184;-67
2022/03/21 07:29:29;;;;;;;0.53;0.53;;;13.10;99.90;13.10;103038.00;;;;5034963;28;20552;-68
2022/03/21 07:32:00;;;;;;;0.20;0.20;;;12.70;99.90;14.80;103055.00;;;;5034850;28;20208;-68
2022/03/21 07:34:31;;;;;;;4.77;1.40;;;13.70;99.90;13.20;103036.00;;;;5036604;28;20179;-67
2022/03/21 07:37:03;;;;;;;2.00;1.30;;;13.60;99.90;13.60;103072.00;;;;5036398;28;20300;-67
2022/03/21 07:39:39;;;;;;;0.37;0.37;;;13.50;99.90;13.80;103059.00;;;;5036399;28;20180;-67
2022/03/21 07:42:15;;;;;;;2.97;1.70;;;13.40;99.90;14.50;103086.00;;;;5036417;28;20188;-68
2022/03/21 07:47:36;;;;;;;6.90;4.23;;;13.60;99.90;13.00;103093.00;;;;5035709;28;20188;-68
2022/03/21 07:50:03;;;;;;;8.17;5.13;;;13.00;99.90;12.10;103090.00;;;;5034706;28;20183;-68
2022/03/21 07:52:34;;;;;;;3.40;3.10;;;12.30;99.90;11.70;103081.00;;;;5035019;28;20260;-68
2022/03/21 07:55:03;;;;;;;4.67;3.83;;;11.80;99.90;10.80;103054.00;;;;5051452;28;20554;-67
2022/03/21 07:57:35;;;;;;;4.47;3.93;;;11.50;99.90;11.30;103056.00;;;;5034920;28;20649;-68
2022/03/21 08:00:09;;;;;;;1.80;1.40;;;11.30;99.90;10.90;103020.00;;;;5034837;28;20192;-68
2022/03/21 08:02:36;;;;;;;1.53;1.43;;;11.00;99.90;11.00;103002.00;;;;5034369;28;20184;-67
2022/03/21 08:05:10;;;;;;;9.67;4.73;;;11.00;99.90;11.10;102970.00;;;;5034106;28;20243;-67
2022/03/21 08:07:43;;;;;;;3.97;3.30;;;11.10;99.90;10.50;102990.00;;;;5051351;28;20193;-67
2022/03/21 08:10:16;;;;;;;3.27;2.97;;;11.00;99.90;12.00;102998.00;;;;5034396;28;20203;-67
2022/03/21 08:12:47;;;;;;;2.53;2.43;;;11.40;99.90;13.10;102988.00;;;;5030356;28;20284;-67
2022/03/21 08:15:19;;;;;;;1.97;1.87;;;12.40;99.90;13.40;103047.00;;;;5034208;28;20278;-67
2022/03/21 08:17:57;;;;;;;0.97;0.77;;;12.90;99.90;13.60;103047.00;;;;5035624;28;20176;-67
2022/03/21 08:20:26;;;;;;;4.53;2.20;;;13.30;99.90;14.30;103065.00;;;;5050475;28;20184;-68
2022/03/21 08:22:52;;;;;;;3.70;1.80;;;13.70;99.90;13.80;103045.00;;;;5051121;28;20665;-68
2022/03/21 08:25:21;;;;;;;0.83;0.83;;;13.60;99.90;14.50;103049.00;;;;5051034;28;20180;-68
2022/03/21 08:27:50;;;;;;;1.47;1.47;;;13.90;99.90;14.10;103074.00;;;;5035339;28;20179;-68
2022/03/21 08:30:18;;;;;;;0.63;0.53;;;13.90;99.90;14.50;103089.00;;;;5049982;28;20189;-68
2022/03/21 08:32:48;;;;;;;1.53;1.43;;;13.90;99.90;13.50;103052.00;;;;5050909;28;20299;-68
2022/03/21 08:35:22;;;;;;;3.90;2.53;;;14.00;99.90;13.90;103077.00;;;;5033924;28;20628;-69
2022/03/21 08:37:50;;;;;;;2.53;1.43;;;13.90;99.90;14.10;103089.00;;;;5034604;28;20184;-68
2022/03/21 08:40:19;;;;;;;1.33;1.33;;;13.90;99.90;13.80;103086.00;;;;5017394;28;20621;-68
2022/03/21 08:42:53;;;;;;;0.30;0.30;;;14.00;99.90;13.70;103080.00;;;;5034500;28;20183;-68
2022/03/21 08:45:21;;;;;;;3.83;3.23;;;13.80;99.90;14.80;103051.00;;;;5013344;28;20196;-68
2022/03/21 08:47:51;;;;;;;0.90;0.90;;;14.10;99.90;15.00;103105.00;;;;5027978;28;20188;-68
2022/03/21 08:50:22;;;;;;;6.70;1.07;;;14.60;99.90;14.40;103077.00;;;;5032522;28;20230;-69
2022/03/21 08:52:48;;;;;;;0.57;0.57;;;14.50;99.90;14.70;103097.00;;;;5033677;28;20199;-69
2022/03/21 08:55:16;;;;;;;2.57;2.37;;;14.60;99.90;14.80;103055.00;;;;5034530;28;20183;-68
2022/03/21 08:57:42;;;;;;;1.90;1.57;;;14.90;99.90;13.50;103075.00;;;;5016647;28;20241;-68
2022/03/21 09:00:13;;;;;;;2.40;2.20;;;14.20;99.90;13.00;103059.00;;;;5033152;28;20187;-68
2022/03/21 09:02:42;;;;;;;7.80;6.20;;;13.70;99.90;14.50;103056.00;;;;5029100;28;20200;-69
2022/03/21 09:05:12;;;;;;;2.63;2.10;;;14.10;99.90;15.00;103053.00;;;;5029563;28;20230;-69
2022/03/21 09:07:39;;;;;;;1.03;1.03;;;14.40;99.90;15.20;103070.00;;;;5028298;28;20193;-69
2022/03/21 09:10:57;;;;;;;1.07;1.07;;;14.80;99.90;15.00;103074.00;;;;5032270;28;20651;-68
2022/03/21 09:13:26;;;;;;;6.23;4.43;;;15.00;99.90;15.40;103074.00;;;;5026623;28;20216;-69
2022/03/21 09:16:19;;;;;;;1.53;1.03;;;15.20;99.90;15.50;103093.00;;;;5031124;28;20188;-68
2022/03/21 09:19:02;;;;;;;1.93;1.83;;;15.30;99.90;15.60;103089.00;;;;5039928;28;20692;-68
2022/03/21 09:21:28;;;;;;;3.40;3.10;;;15.40;99.90;15.90;103083.00;;;;5033630;28;20188;-68
2022/03/21 09:23:59;;;;;;;0.57;0.57;;;15.50;99.90;14.70;102972.00;;;;5025798;28;20193;-68
2022/03/21 09:26:28;;;;;;;1.10;1.10;;;15.20;99.90;15.20;102968.00;;;;5028912;28;20188;-68
2022/03/21 09:29:02;;;;;;;3.37;2.43;;;15.10;99.90;15.90;102972.00;;;;5014647;28;20186;-69
2022/03/21 09:31:32;;;;;;;0.60;0.60;;;15.50;99.90;15.80;102955.00;;;;5031015;28;20709;-69
2022/03/21 09:33:58;;;;;;;3.33;2.87;;;15.50;99.90;15.80;102962.00;;;;5029758;28;20207;-69
2022/03/21 09:36:24;;;;;;;2.27;1.97;;;15.60;99.90;15.50;102944.00;;;;5031438;28;20286;-69
2022/03/21 09:38:59;;;;;;;0.83;0.80;;;15.60;99.90;15.70;102966.00;;;;5015149;28;20632;-69
2022/03/21 09:41:27;;;;;;;0.10;0.10;;;15.60;99.90;16.20;102972.00;;;;5010296;28;20185;-69
2022/03/21 09:43:57;;;;;;;0.63;0.63;;;16.00;99.90;16.80;102973.00;;;;5030590;28;20189;-69
2022/03/21 09:46:23;;;;;;;1.50;1.40;;;16.20;99.90;16.00;102943.00;;;;5031728;28;20187;-69
2022/03/21 09:48:57;;;;;;;0.10;0.10;;;16.20;99.90;16.40;102956.00;;;;5032061;28;20176;-69
2022/03/21 09:51:33;;;;;;;1.63;1.53;;;16.40;99.90;16.60;102965.00;;;;5031795;28;20179;-69
2022/03/21 09:54:03;;;;;;;2.33;2.20;;;16.60;99.90;16.50;102960.00;;;;5026351;28;20184;-69
2022/03/21 09:56:29;;;;;;;3.53;3.27;;;16.60;99.90;17.60;102961.00;;;;5019085;28;20751;-69
2022/03/21 09:59:01;;;;;;;3.97;2.33;;;17.00;99.90;17.00;102920.00;;;;5013772;28;20260;-68
2022/03/21 10:01:31;;;;;;;0.83;0.83;;;17.10;99.90;16.60;102928.00;;;;5007941;28;20202;-69
2022/03/21 10:04:00;;;;;;;1.13;1.03;;;16.80;99.90;16.90;102973.00;;;;5028786;28;20221;-69
2022/03/21 10:06:35;;;;;;;1.40;1.30;;;16.70;99.90;16.70;102969.00;;;;5032620;28;20194;-68
2022/03/21 10:09:11;;;;;;;2.07;1.33;;;16.80;99.90;16.30;102973.00;;;;5032365;28;20170;-69
2022/03/21 10:11:49;;;;;;;7.97;3.70;;;16.50;99.90;17.10;102966.00;;;;5032947;28;20305;-68
2022/03/21 10:14:34;;;;;;;1.20;0.83;;;16.60;99.90;15.90;102926.00;;;;5032374;28;20633;-68
2022/03/21 10:17:09;;;;;;;2.13;1.93;;;16.20;99.90;16.40;102967.00;;;;5032309;28;20173;-69
2022/03/21 10:19:53;;;;;;;1.87;1.40;;;16.10;99.90;16.90;102959.00;;;;5031994;28;20184;-69
2022/03/21 10:33:26;;;;;;;1.50;0.53;;;16.00;99.90;17.20;102958.00;;;;5114115;27;1292659;-61
2022/03/21 10:35:54;;;;;;;3.60;2.03;;;16.60;99.90;17.80;102954.00;;;;5132192;27;20377;-60
2022/03/21 10:38:36;;;;;;;0.57;0.57;;;17.40;99.90;17.00;102959.00;;;;5131495;27;20179;-67
2022/03/21 10:41:10;;;;;;;2.53;1.90;;;17.30;99.90;18.10;102928.00;;;;5129993;28;20182;-67
2022/03/21 10:43:37;;;;;;;2.27;1.73;;;17.60;99.90;18.40;102944.00;;;;5112787;28;20209;-67
2022/03/21 10:46:08;;;;;;;0.33;0.33;;;18.00;99.90;18.30;102944.00;;;;5112568;28;20236;-67
2022/03/21 10:48:40;;;;;;;6.40;3.03;;;18.20;99.90;16.70;102957.00;;;;5129857;28;20183;-68
2022/03/21 10:51:16;;;;;;;1.98;1.88;;;17.70;99.90;17.40;102954.00;;;;5113868;28;20206;-68
2022/03/21 10:53:47;;;;;;;1.13;1.13;;;17.50;99.90;17.50;102911.00;;;;5129903;28;20626;-68
2022/03/21 10:56:15;;;;;;;1.20;1.10;;;17.60;99.90;18.50;102950.00;;;;5129897;28;20287;-68
2022/03/21 10:58:52;;;;;;;0.93;0.93;;;18.00;99.90;18.90;102939.00;;;;5112635;28;20186;-67
2022/03/21 11:01:29;;;;;;;0.40;0.40;;;18.50;99.90;18.90;102935.00;;;;5128702;28;20174;-68
2022/03/21 11:04:02;;;;;;;0.52;0.52;;;18.70;99.90;19.00;102937.00;;;;5118659;28;20224;-68
2022/03/21 11:06:31;;;;;;;1.35;0.95;;;19.00;99.90;18.80;102939.00;;;;5091373;28;20514;-68
2022/03/21 11:08:57;;;;;;;1.27;1.27;;;18.80;99.90;19.50;102933.00;;;;5091363;28;20179;-67
2022/03/21 11:11:29;;;;;;;3.22;2.60;;;19.10;99.90;18.70;102942.00;;;;5108601;28;20200;-67
2022/03/21 11:13:55;;;;;;;0.22;0.22;;;18.80;99.90;19.00;102933.00;;;;5108737;28;20413;-67
2022/03/21 11:16:21;;;;;;;1.50;1.42;;;18.70;99.90;17.80;102949.00;;;;5091413;28;20302;-67
2022/03/21 11:18:54;;;;;;;0.50;0.50;;;18.20;99.90;17.90;102960.00;;;;5108422;28;20607;-67
2022/03/21 11:21:26;;;;;;;0.20;0.20;;;18.10;99.90;18.20;102950.00;;;;5092236;28;20542;-68
2022/03/21 11:23:52;;;;;;;3.97;3.20;;;18.00;99.90;19.40;102946.00;;;;5106442;28;20180;-67
2022/03/21 11:26:56;;;;;;;6.38;4.60;;;18.70;99.90;19.10;102938.00;;;;5116751;28;20309;-66
2022/03/21 11:29:41;;;;;;;0.60;0.60;;;18.60;99.90;18.40;102948.00;;;;5109016;28;20274;-67
2022/03/21 11:32:23;;;;;;;1.50;1.50;;;18.30;99.90;19.10;102954.00;;;;5107994;28;20219;-67
2022/03/21 11:35:13;;;;;;;6.32;3.50;;;18.40;99.90;20.20;102926.00;;;;5091915;28;20657;-67
2022/03/21 11:37:40;;;;;;;1.95;1.65;;;19.30;99.90;19.20;102939.00;;;;5091641;28;20237;-67
2022/03/21 11:40:36;;;;;;;1.77;1.70;;;19.30;99.90;18.80;102940.00;;;;5107962;28;20187;-67
2022/03/21 11:43:17;;;;;;;0.25;0.25;;;19.00;99.90;18.60;102942.00;;;;5086769;28;20188;-68
2022/03/21 11:45:45;;;;;;;0.52;0.52;;;18.80;99.90;18.20;102934.00;;;;5095870;28;20184;-67
2022/03/21 11:48:37;;;;;;;0.55;0.55;;;18.70;99.90;18.50;102945.00;;;;5095387;28;20185;-67
2022/03/21 11:51:21;;;;;;;1.33;1.02;;;18.40;99.90;19.40;102936.00;;;;5086502;28;20189;-67
2022/03/21 11:53:50;;;;;;;8.82;2.08;;;18.90;99.90;19.20;102941.00;;;;5095829;28;20180;-66